createdAt,value
2018-11-28T00:01:13.642Z,30.33
2018-11-28T00:03:41.830Z,27.67
2018-11-28T00:06:10.039Z,28.40
2018-11-28T00:08:38.200Z,29.37
2018-11-28T00:11:06.373Z,31.23
2018-11-28T00:13:34.975Z,29.60
2018-11-28T00:16:03.206Z,30.10
2018-11-28T00:18:31.369Z,29.43
2018-11-28T00:20:59.599Z,30.20
2018-11-28T00:23:27.796Z,29.30
2018-11-28T00:25:58.863Z,28.43
2018-11-28T00:28:24.141Z,30.33
2018-11-28T00:30:52.290Z,29.63
2018-11-28T00:33:20.395Z,29.77
2018-11-28T00:35:48.552Z,29.27
2018-11-28T00:38:16.684Z,29.73
2018-11-28T00:40:44.865Z,28.47
2018-11-28T00:43:13.002Z,27.50
2018-11-28T00:45:41.129Z,29.20
2018-11-28T00:48:09.308Z,27.97
2018-11-28T00:50:37.459Z,28.10
2018-11-28T00:53:06.183Z,27.63
2018-11-28T00:55:34.387Z,27.97
2018-11-28T00:58:02.577Z,27.47
2018-11-28T01:00:30.738Z,27.63
2018-11-28T01:02:58.936Z,29.50
2018-11-28T01:05:27.026Z,27.60
2018-11-28T01:07:55.541Z,29.57
2018-11-28T01:10:24.164Z,27.30
2018-11-28T01:12:52.868Z,27.40
2018-11-28T01:15:21.302Z,27.43
2018-11-28T01:17:49.438Z,27.43
2018-11-28T01:20:18.352Z,29.03
2018-11-28T01:22:51.149Z,27.30
2018-11-28T01:25:19.720Z,27.20
2018-11-28T01:27:48.023Z,28.30
2018-11-28T01:30:17.584Z,26.40
2018-11-28T01:32:45.793Z,27.23
2018-11-28T01:35:14.667Z,26.37
2018-11-28T01:37:43.068Z,27.67
2018-11-28T01:40:12.307Z,25.93
2018-11-28T01:42:40.461Z,26.00
2018-11-28T01:45:12.066Z,26.40
2018-11-28T01:47:40.248Z,26.53
2018-11-28T01:50:10.796Z,27.90
2018-11-28T01:52:40.312Z,26.50
2018-11-28T01:55:09.060Z,25.97
2018-11-28T01:57:37.243Z,27.90
2018-11-28T02:00:07.617Z,28.03
2018-11-28T02:02:35.826Z,25.93
2018-11-28T02:05:04.115Z,26.17
2018-11-28T02:07:32.376Z,26.93
2018-11-28T02:10:00.477Z,26.27
2018-11-28T02:12:29.098Z,26.13
2018-11-28T02:14:57.216Z,25.43
2018-11-28T02:17:25.590Z,26.50
2018-11-28T02:19:53.697Z,26.97
2018-11-28T02:22:21.869Z,26.93
2018-11-28T02:24:50.004Z,27.37
2018-11-28T02:27:18.109Z,28.23
2018-11-28T02:29:46.286Z,28.03
2018-11-28T02:32:14.408Z,27.50
2018-11-28T02:34:42.580Z,27.10
2018-11-28T02:37:10.726Z,28.93
2018-11-28T02:39:38.875Z,27.90
2018-11-28T02:42:07.084Z,28.30
2018-11-28T02:44:35.287Z,28.70
2018-11-28T02:47:03.412Z,28.47
2018-11-28T02:49:31.618Z,27.83
2018-11-28T02:51:59.835Z,27.40
2018-11-28T02:54:27.881Z,28.00
2018-11-28T02:56:55.987Z,28.40
2018-11-28T02:59:24.198Z,28.40
2018-11-28T03:01:52.346Z,29.20
2018-11-28T03:04:20.541Z,28.13
2018-11-28T03:06:48.697Z,27.40
2018-11-28T03:09:16.856Z,27.70
2018-11-28T03:11:44.954Z,28.20
2018-11-28T03:14:13.083Z,27.57
2018-11-28T03:16:41.357Z,27.33
2018-11-28T03:19:09.958Z,27.67
2018-11-28T03:21:38.146Z,29.20
2018-11-28T03:24:06.250Z,27.33
2018-11-28T03:26:34.372Z,26.50
2018-11-28T03:29:02.543Z,26.30
2018-11-28T03:31:30.745Z,27.93
2018-11-28T03:33:58.875Z,27.03
2018-11-28T03:36:27.025Z,26.73
2018-11-28T03:38:55.328Z,26.83
2018-11-28T03:41:23.438Z,27.33
2018-11-28T03:43:51.539Z,26.33
2018-11-28T03:46:19.677Z,27.83
2018-11-28T03:48:47.946Z,28.33
2018-11-28T03:51:18.105Z,29.20
2018-11-28T03:53:46.313Z,28.60
2018-11-28T03:56:14.411Z,27.97
2018-11-28T03:58:42.514Z,28.40
2018-11-28T04:01:10.659Z,27.80
2018-11-28T04:03:38.745Z,28.33
2018-11-28T04:06:07.694Z,28.37
2018-11-28T04:08:35.805Z,30.50
2018-11-28T04:11:03.978Z,29.63
2018-11-28T04:13:32.169Z,28.20
2018-11-28T04:16:00.316Z,28.33
2018-11-28T04:18:28.390Z,29.23
2018-11-28T04:20:56.546Z,29.67
2018-11-28T04:23:24.701Z,29.60
2018-11-28T04:25:52.788Z,29.93
2018-11-28T04:28:20.860Z,28.43
2018-11-28T04:30:48.986Z,28.80
2018-11-28T04:33:17.157Z,28.90
2018-11-28T04:35:45.272Z,29.90
2018-11-28T04:38:13.409Z,29.70
2018-11-28T04:40:41.585Z,28.80
2018-11-28T04:43:09.683Z,30.47
2018-11-28T04:45:37.833Z,29.70
2018-11-28T04:48:06.045Z,29.40
2018-11-28T04:50:34.212Z,28.90
2018-11-28T04:53:02.394Z,29.10
2018-11-28T04:55:30.555Z,30.10
2018-11-28T04:57:58.770Z,29.63
2018-11-28T05:00:26.965Z,30.10
2018-11-28T05:02:55.753Z,31.43
2018-11-28T05:05:23.877Z,31.40
2018-11-28T05:07:52.695Z,32.57
2018-11-28T05:10:23.332Z,29.60
2018-11-28T05:12:52.912Z,33.90
2018-11-28T05:15:21.620Z,29.70
2018-11-28T05:17:50.213Z,31.43
2018-11-28T05:20:18.955Z,31.77
2018-11-28T05:22:47.234Z,30.17
2018-11-28T05:25:15.925Z,30.57
2018-11-28T05:27:44.118Z,30.90
2018-11-28T05:30:12.718Z,28.00
2018-11-28T05:32:40.981Z,30.43
2018-11-28T05:35:09.870Z,30.20
2018-11-28T05:37:37.985Z,29.70
2018-11-28T05:40:08.161Z,28.20
2018-11-28T05:42:36.318Z,28.13
2018-11-28T05:45:05.094Z,26.63
2018-11-28T05:47:33.262Z,30.00
2018-11-28T05:50:01.385Z,27.17
2018-11-28T05:52:29.518Z,27.70
2018-11-28T05:54:57.699Z,27.63
2018-11-28T05:57:25.853Z,25.87
2018-11-28T05:59:54.070Z,25.97
2018-11-28T06:02:22.198Z,26.10
2018-11-28T06:04:50.421Z,25.67
2018-11-28T06:07:18.549Z,24.73
2018-11-28T06:09:46.769Z,25.83
2018-11-28T06:12:14.990Z,25.67
2018-11-28T06:14:43.215Z,25.40
2018-11-28T06:17:11.389Z,24.33
2018-11-28T06:19:39.532Z,23.40
2018-11-28T06:22:07.816Z,24.13
2018-11-28T06:24:35.947Z,23.23
2018-11-28T06:27:04.122Z,22.70
2018-11-28T06:29:34.708Z,22.37
2018-11-28T06:32:03.138Z,21.43
2018-11-28T06:34:31.418Z,23.27
2018-11-28T06:36:59.588Z,21.87
2018-11-28T06:39:36.947Z,22.70
2018-11-28T06:42:05.332Z,22.90
2018-11-28T06:44:56.121Z,23.23
2018-11-28T06:47:24.282Z,23.17
2018-11-28T06:49:52.441Z,22.00
2018-11-28T06:52:20.935Z,23.87
2018-11-28T06:54:49.202Z,24.23
2018-11-28T06:57:17.411Z,22.23
2018-11-28T06:59:45.640Z,24.03
2018-11-28T07:02:13.787Z,24.13
2018-11-28T07:04:41.966Z,23.67
2018-11-28T07:07:10.114Z,24.87
2018-11-28T07:09:39.265Z,26.90
2018-11-28T07:12:07.853Z,24.97
2018-11-28T07:14:36.054Z,25.00
2018-11-28T07:17:04.230Z,24.93
2018-11-28T07:19:32.452Z,25.43
2018-11-28T07:22:00.643Z,25.53
2018-11-28T07:24:33.569Z,25.53
2018-11-28T09:18:25.561Z,17.70
2018-11-28T09:20:53.824Z,18.40
2018-11-28T09:23:22.239Z,18.50
2018-11-28T09:25:50.752Z,19.53
2018-11-28T09:28:19.086Z,17.60
2018-11-28T09:30:48.437Z,18.80
2018-11-28T09:33:17.442Z,17.83
2018-11-28T09:35:45.858Z,17.73
2018-11-28T09:38:14.468Z,18.63
2018-11-28T09:45:19.808Z,18.00
2018-11-28T09:57:17.709Z,17.77
2018-11-28T09:59:46.139Z,16.90
2018-11-28T10:02:14.418Z,17.17
2018-11-28T10:04:42.904Z,17.80
2018-11-28T10:07:11.075Z,16.47
2018-11-28T10:09:39.271Z,15.87
2018-11-28T10:12:07.786Z,17.10
2018-11-28T10:14:36.430Z,16.60
2018-11-28T10:17:05.565Z,17.03
2018-11-28T10:19:34.112Z,17.07
2018-11-28T10:22:02.623Z,16.77
2018-11-28T10:24:30.951Z,17.53
2018-11-28T10:26:59.735Z,16.13
2018-11-28T10:29:28.226Z,16.90
2018-11-28T10:31:56.566Z,17.27
2018-11-28T10:34:29.603Z,17.67
2018-11-28T10:36:56.295Z,16.80
2018-11-28T10:39:26.249Z,17.53
2018-11-28T10:41:54.983Z,17.47
2018-11-28T10:44:23.624Z,16.87
2018-11-28T10:46:51.953Z,17.13
2018-11-28T11:04:17.058Z,15.77
2018-11-28T11:12:47.619Z,15.03
2018-11-28T11:15:30.109Z,14.87
2018-11-28T11:18:02.268Z,14.57
2018-11-28T11:23:57.361Z,13.50
2018-11-28T11:26:25.948Z,13.33
2018-11-28T11:28:55.035Z,13.93
2018-11-28T11:31:29.295Z,13.67
2018-11-28T11:34:08.789Z,13.97
2018-11-28T11:36:39.124Z,12.77
2018-11-28T11:39:19.942Z,12.73
2018-11-28T11:41:49.443Z,12.37
2018-11-28T11:44:17.929Z,12.63
2018-11-28T11:46:48.071Z,11.60
2018-11-28T11:49:19.081Z,11.77
2018-11-28T11:51:50.888Z,12.17
2018-11-28T11:54:20.243Z,11.73
2018-11-28T11:56:59.063Z,12.20
2018-11-28T11:59:29.579Z,10.90
2018-11-28T12:01:58.899Z,10.80
2018-11-28T12:04:27.977Z,11.43
2018-11-28T12:06:56.877Z,11.47
2018-11-28T12:09:26.347Z,11.70
2018-11-28T12:17:33.108Z,11.03
2018-11-28T12:20:03.810Z,10.93
2018-11-28T12:22:44.467Z,11.00
2018-11-28T12:25:15.301Z,11.03
2018-11-28T12:27:55.616Z,9.87
2018-11-28T12:30:24.178Z,10.63
2018-11-28T12:32:53.848Z,10.73
2018-11-28T12:35:23.669Z,10.50
2018-11-28T12:43:56.364Z,10.50
2018-11-28T12:49:25.266Z,10.87
2018-11-28T12:54:55.099Z,10.03
2018-11-28T12:57:27.269Z,10.27
2018-11-28T13:02:38.588Z,11.50
2018-11-28T13:05:10.899Z,11.40
2018-11-28T13:07:40.040Z,10.80
2018-11-28T13:10:28.290Z,12.37
2018-11-28T13:12:59.531Z,11.27
2018-11-28T13:15:32.917Z,11.87
2018-11-28T13:18:15.792Z,11.37
2018-11-28T13:23:28.945Z,12.50
2018-11-28T13:26:02.652Z,12.53
2018-11-28T13:28:37.802Z,11.57
2018-11-28T13:31:08.230Z,12.90
2018-11-28T13:33:39.864Z,13.23
2018-11-28T13:36:15.771Z,12.97
2018-11-28T13:38:46.568Z,11.87
2018-11-28T13:41:16.473Z,12.37
2018-11-28T13:43:44.977Z,12.00
2018-11-28T13:46:14.297Z,11.57
2018-11-28T13:48:43.449Z,11.87
2018-11-28T13:51:15.701Z,11.60
2018-11-28T13:53:47.225Z,12.17
2018-11-28T13:56:58.242Z,12.93
2018-11-28T13:58:49.108Z,11.17
2018-11-28T14:01:21.376Z,12.13
2018-11-28T14:03:52.570Z,13.10
2018-11-28T14:06:30.188Z,11.97
2018-11-28T14:08:58.759Z,12.13
2018-11-28T14:11:27.829Z,12.23
2018-11-28T14:13:58.224Z,12.43
2018-11-28T14:16:32.402Z,13.03
2018-11-28T14:19:30.401Z,13.07
2018-11-28T14:26:19.712Z,13.53
2018-11-28T14:28:49.823Z,14.53
2018-11-28T14:31:20.477Z,13.73
2018-11-28T14:33:50.938Z,14.37
2018-11-28T14:36:18.556Z,14.57
2018-11-28T14:38:46.584Z,14.67
2018-11-28T14:41:15.382Z,14.53
2018-11-28T14:43:43.904Z,15.83
2018-11-28T14:46:12.415Z,15.80
2018-11-28T14:48:40.856Z,14.90
2018-11-28T14:51:10.720Z,16.60
2018-11-28T14:53:39.370Z,15.90
2018-11-28T14:56:07.704Z,15.67
2018-11-28T14:58:36.415Z,15.87
2018-11-28T15:01:04.861Z,17.00
2018-11-28T15:03:33.182Z,18.17
2018-11-28T15:15:14.742Z,17.80
2018-11-28T15:17:43.217Z,19.87
2018-11-28T15:20:11.833Z,18.40
2018-11-28T15:22:40.125Z,18.47
2018-11-28T15:25:12.692Z,19.97
2018-11-28T15:27:41.786Z,17.40
2018-11-28T15:30:19.280Z,20.57
2018-11-28T15:32:48.464Z,21.00
2018-11-28T15:35:19.418Z,21.13
2018-11-28T15:37:47.877Z,21.90
2018-11-28T15:40:17.050Z,20.60
2018-11-28T15:42:45.573Z,21.80
2018-11-28T15:45:14.035Z,20.93
2018-11-28T15:47:42.576Z,21.67
2018-11-28T15:50:11.730Z,21.77
2018-11-28T15:52:43.396Z,20.73
2018-11-28T15:55:13.685Z,24.00
2018-11-28T15:57:43.478Z,23.60
2018-11-28T16:00:19.042Z,24.07
2018-11-28T16:02:47.355Z,23.97
2018-11-28T16:05:16.177Z,22.87
2018-11-28T16:07:44.638Z,23.93
2018-11-28T16:10:19.070Z,23.97
2018-11-28T16:12:47.810Z,24.53
2018-11-28T16:16:15.800Z,25.07
2018-11-28T16:18:45.812Z,25.10
2018-11-28T16:21:15.933Z,25.83
2018-11-28T16:23:45.745Z,26.60
2018-11-28T16:26:15.990Z,25.40
2018-11-28T16:29:04.155Z,28.83
2018-11-28T16:45:41.927Z,28.10
2018-11-28T16:48:09.531Z,29.03
2018-11-28T16:50:38.973Z,29.07
2018-11-28T16:53:08.339Z,28.60
2018-11-28T16:55:40.200Z,29.23
2018-11-28T16:58:08.887Z,28.43
2018-11-28T17:00:38.650Z,28.00
2018-11-28T17:03:09.845Z,29.77
2018-11-28T17:05:38.760Z,30.07
2018-11-28T17:08:09.139Z,29.10
2018-11-28T17:10:45.985Z,30.97
2018-11-28T17:13:16.299Z,30.97
2018-11-28T17:15:54.616Z,30.00
2018-11-28T17:22:06.119Z,29.90
2018-11-28T17:24:35.898Z,30.77
2018-11-28T17:28:13.903Z,30.23
2018-11-28T17:33:28.987Z,30.30
2018-11-28T17:35:58.753Z,29.87
2018-11-28T17:38:28.784Z,30.40
2018-11-28T17:46:21.222Z,30.17
2018-11-28T17:48:50.111Z,29.73
2018-11-28T17:51:18.814Z,28.87
2018-11-28T17:53:49.984Z,29.80
2018-11-28T17:56:20.011Z,27.80
2018-11-28T17:58:49.801Z,28.33
2018-11-28T18:01:18.610Z,27.70
2018-11-28T18:04:19.817Z,28.30
2018-11-28T18:06:48.853Z,28.30
2018-11-28T18:09:17.353Z,28.33
2018-11-28T18:11:45.879Z,28.17
2018-11-28T18:14:14.219Z,28.73
2018-11-28T18:16:42.600Z,28.90
2018-11-28T18:19:12.449Z,26.83
2018-11-28T18:21:41.092Z,27.70
2018-11-28T18:24:11.300Z,28.00
2018-11-28T18:26:39.639Z,29.43
2018-11-28T18:29:08.772Z,30.97
2018-11-28T18:31:37.466Z,29.17
2018-11-28T18:34:06.142Z,30.67
2018-11-28T18:36:34.434Z,30.00
2018-11-28T18:39:04.399Z,31.17
2018-11-28T18:41:34.493Z,29.50
2018-11-28T18:44:13.047Z,31.17
2018-11-28T18:46:42.500Z,30.83
2018-11-28T18:49:17.544Z,31.43
2018-11-28T18:51:49.767Z,30.67
2018-11-28T18:54:18.213Z,31.57
2018-11-28T18:56:46.533Z,32.37
2018-11-28T18:59:16.181Z,32.03
2018-11-28T19:01:48.402Z,32.20
2018-11-28T19:04:23.682Z,32.53
2018-11-28T19:06:55.115Z,32.40
2018-11-28T19:09:28.834Z,32.97
2018-11-28T19:14:45.621Z,30.93
2018-11-28T19:17:18.147Z,31.77
2018-11-28T19:19:49.892Z,32.23
2018-11-28T19:22:21.537Z,32.70
2018-11-28T19:24:57.931Z,30.30
2018-11-28T19:30:31.129Z,32.70
2018-11-28T20:44:37.516Z,22.87
2018-11-28T20:47:07.915Z,22.57
2018-11-28T20:53:09.788Z,21.53
2018-11-28T20:55:46.904Z,20.07
2018-11-28T20:58:25.667Z,20.87
2018-11-28T21:00:55.358Z,19.57
2018-11-28T21:03:35.433Z,18.10
2018-11-28T21:06:21.789Z,19.60
2018-11-28T21:08:54.200Z,18.13
2018-11-28T21:14:22.343Z,17.47
2018-11-28T21:20:10.460Z,17.53
2018-11-28T21:25:50.528Z,16.23
2018-11-28T21:28:23.282Z,18.03
2018-11-28T21:30:51.861Z,16.23
2018-11-28T21:33:20.551Z,15.50
2018-11-28T21:35:50.174Z,16.70
2018-11-28T21:38:18.699Z,14.87
2018-11-28T21:40:47.772Z,14.70
2018-11-28T21:43:16.133Z,15.80
2018-11-28T21:45:45.479Z,15.47
2018-11-28T21:48:14.066Z,13.80
2018-11-28T21:50:42.201Z,13.43
2018-11-28T21:57:48.622Z,13.80
2018-11-28T22:06:35.653Z,13.03
2018-11-28T22:09:21.058Z,13.27
2018-11-28T22:11:50.333Z,13.10
2018-11-28T22:14:18.632Z,13.30
2018-11-28T22:16:47.196Z,12.13
2018-11-28T22:19:15.551Z,12.20
2018-11-28T22:21:44.087Z,12.57
2018-11-28T22:24:15.609Z,13.13
2018-11-28T22:26:44.268Z,12.47
2018-11-28T22:29:12.543Z,13.33
2018-11-28T22:31:40.887Z,12.73
2018-11-28T22:34:09.323Z,12.93
2018-11-28T22:36:37.585Z,13.07
2018-11-28T22:39:07.534Z,12.73
2018-11-28T22:41:35.755Z,13.27
2018-11-28T22:44:04.161Z,14.70
2018-11-28T22:46:32.749Z,14.57
2018-11-28T22:49:01.279Z,13.93
2018-11-28T22:51:29.952Z,14.23
2018-11-28T22:53:58.215Z,14.40
2018-11-28T22:56:26.449Z,15.00
2018-11-28T22:58:54.858Z,15.43
2018-11-28T23:01:29.356Z,12.73
2018-11-28T23:03:57.556Z,14.37
2018-11-28T23:06:29.181Z,15.33
2018-11-28T23:08:57.561Z,14.80
2018-11-28T23:11:25.975Z,14.37
2018-11-28T23:13:54.341Z,15.30
2018-11-28T23:20:07.692Z,14.40
2018-11-28T23:22:36.110Z,15.13
2018-11-28T23:25:05.017Z,15.27
2018-11-28T23:27:33.353Z,14.43
2018-11-28T23:30:02.604Z,14.80
2018-11-28T23:32:30.984Z,15.30
2018-11-28T23:34:59.476Z,13.73
2018-11-28T23:37:27.716Z,14.37
2018-11-28T23:39:55.855Z,13.20
2018-11-28T23:42:24.419Z,13.77
2018-11-28T23:44:53.624Z,13.70
2018-11-28T23:47:23.448Z,13.10
2018-11-28T23:50:00.985Z,13.53
2018-11-28T23:52:29.297Z,11.67
2018-11-28T23:54:57.815Z,13.13
2018-11-28T23:57:28.262Z,13.60
2018-11-28T23:59:56.713Z,12.30
